Main page
METAR-TAF:

METAR-TAF

Airports :

Angers – Loire Airport

Angers, France

latitude: 47-33-37N, longitude: 000-18-44W, elevation: 59 m

Current weather observation

The report was made 35 minutes ago, at 08:30 UTC
Wind 9 kt from the West, varying between West/Southwest and Northwest
Temperature 15°C
Humidity 77%
Pressure 1016 hPa
Visibility 10 km or more
Few clouds at a height of 1800 ft

METAR: LFJR 210830Z AUTO 28009KT 250V320 9999 FEW018 15/11 Q1016 NOSIG

Time: 11:05 (09:05 UTC)

Forecast

The report was made 1 hour and 5 minutes ago, at 08:00 UTC
Forecast valid from 21 at 09 UTC to 21 at 18 UTC
Wind 7 kt from the West
Visibility 10 km or more
no clouds below 1500 m and no cumulonimbus

TAF: LFJR 210800Z 2109/2118 28007KT CAVOK

Weather observations and forecasts of more than 4000 airports (METAR and TAF reports).

The available stations are represented by yellow and red dots on the map.

Hover mouse over dot to see the name of the station.

Then click to see weather observations and forecasts.

To change the map : click on the green buttons with a black cross to zoom in, on the green button with a dash to zoom out, or on the green arrows for adjacent maps.


METAR-TAF: